Time;durP1;ratioP1;P1;durP2;ratioP2;P2;SDS_P1;SDS_P2;PMS_P1;PMS_P2;Temp;Humidity;BMP_temperature;BMP_pressure;BME280_temperature;BME280_humidity;BME280_pressure;Samples;Min_cycle;Max_cycle;Signal;HPM_P1;HPM_P2
2022/08/19 00:01:35;;;;;;;3.85;0.80;;;15.10;99.90;;;;;;4955718;28;20029;-79
2022/08/19 00:04:06;;;;;;;1.00;0.60;;;15.10;99.90;;;;;;4955946;28;20047;-77
2022/08/19 00:06:36;;;;;;;2.53;0.80;;;15.00;99.90;;;;;;4955556;28;20035;-77
2022/08/19 00:09:06;;;;;;;4.15;0.90;;;15.00;99.90;;;;;;4955818;28;20032;-78
2022/08/19 00:11:37;;;;;;;2.33;0.60;;;15.00;99.90;;;;;;4955755;28;20046;-77
2022/08/19 00:14:08;;;;;;;2.25;0.77;;;15.00;99.90;;;;;;4956170;29;20117;-77
2022/08/19 00:16:36;;;;;;;2.10;0.50;;;15.10;99.90;;;;;;4954308;29;20024;-76
2022/08/19 00:19:04;;;;;;;1.60;0.70;;;15.20;99.90;;;;;;4955617;28;20019;-76
2022/08/19 00:21:31;;;;;;;3.40;1.15;;;15.30;99.90;;;;;;4954160;29;20030;-78
2022/08/19 00:23:59;;;;;;;2.40;0.70;;;15.40;99.90;;;;;;4955685;28;20031;-77
2022/08/19 00:26:28;;;;;;;1.73;0.90;;;15.50;99.90;;;;;;4954032;29;20085;-77
2022/08/19 00:28:56;;;;;;;4.03;1.10;;;15.60;99.90;;;;;;4955758;28;20034;-76
2022/08/19 00:31:25;;;;;;;1.40;0.50;;;15.70;99.90;;;;;;4954233;29;20050;-78
2022/08/19 00:33:52;;;;;;;1.05;0.50;;;15.80;99.90;;;;;;4954093;29;20028;-77
2022/08/19 00:36:19;;;;;;;1.13;0.40;;;16.00;99.90;;;;;;4954255;29;20029;-77
2022/08/19 00:38:47;;;;;;;1.67;0.63;;;16.20;99.90;;;;;;4955242;28;20033;-77
2022/08/19 00:41:20;;;;;;;1.42;0.55;;;16.40;99.90;;;;;;4954914;28;20043;-77
2022/08/19 00:44:07;;;;;;;0.60;0.60;;;16.80;99.90;;;;;;4955007;28;20030;-77
2022/08/19 00:46:37;;;;;;;0.95;0.30;;;16.90;99.90;;;;;;4955252;28;20087;-77
2022/08/19 00:49:23;;;;;;;2.15;0.60;;;16.90;99.90;;;;;;4953508;29;20099;-77
2022/08/19 00:51:58;;;;;;;1.13;0.40;;;17.10;99.90;;;;;;4954037;29;20098;-77
2022/08/19 00:54:26;;;;;;;2.80;0.77;;;17.30;99.90;;;;;;4953929;29;20028;-76
2022/08/19 00:56:54;;;;;;;1.10;0.20;;;17.40;99.90;;;;;;4954810;28;20034;-78
2022/08/19 00:59:22;;;;;;;1.65;0.35;;;17.60;99.90;;;;;;4954020;29;20451;-78
2022/08/19 01:01:49;;;;;;;1.35;0.35;;;17.60;99.90;;;;;;4955347;28;20368;-77
2022/08/19 01:04:16;;;;;;;0.40;0.30;;;17.60;99.90;;;;;;4953731;29;20110;-77
2022/08/19 01:06:44;;;;;;;0.90;0.30;;;17.60;99.90;;;;;;4953724;29;20082;-76
2022/08/19 01:09:11;;;;;;;0.90;0.40;;;17.70;99.90;;;;;;4953767;28;20027;-76
2022/08/19 01:11:42;;;;;;;1.15;0.43;;;17.80;99.90;;;;;;4958262;28;20027;-77
2022/08/19 01:14:10;;;;;;;1.05;0.30;;;18.00;99.90;;;;;;4958786;28;20059;-76
2022/08/19 01:16:40;;;;;;;1.02;0.38;;;17.90;99.90;;;;;;4958632;28;20029;-75
2022/08/19 01:19:31;;;;;;;2.25;0.40;;;18.00;99.90;;;;;;4958853;28;20024;-79
2022/08/19 01:22:18;;;;;;;1.98;0.70;;;18.30;99.90;;;;;;4958642;28;20373;-77
2022/08/19 01:24:45;;;;;;;1.48;0.50;;;18.50;99.90;;;;;;4957272;29;20488;-77
2022/08/19 01:27:13;;;;;;;1.83;0.30;;;18.70;99.90;;;;;;4958681;28;20027;-76
2022/08/19 01:29:42;;;;;;;0.63;0.30;;;18.70;99.90;;;;;;4958805;28;20533;-76
2022/08/19 01:32:14;;;;;;;1.20;0.50;;;18.60;99.90;;;;;;4956931;29;20514;-75
2022/08/19 01:34:46;;;;;;;1.23;0.30;;;18.40;99.90;;;;;;4957130;29;20027;-77
2022/08/19 01:37:15;;;;;;;0.60;0.22;;;18.30;99.90;;;;;;4956982;29;20027;-77
2022/08/19 01:39:43;;;;;;;0.60;0.40;;;18.30;99.90;;;;;;4957835;28;20104;-77
2022/08/19 01:42:11;;;;;;;0.68;0.15;;;18.40;99.90;;;;;;4957054;29;20034;-77
2022/08/19 01:44:41;;;;;;;0.82;0.28;;;18.50;99.90;;;;;;4958196;28;20364;-76
2022/08/19 01:47:09;;;;;;;1.05;0.30;;;18.80;99.90;;;;;;4958075;28;20023;-77
2022/08/19 01:49:38;;;;;;;1.75;0.50;;;19.10;99.90;;;;;;4958259;28;20027;-78
2022/08/19 01:52:06;;;;;;;1.08;0.30;;;19.10;99.90;;;;;;4956650;29;20107;-77
2022/08/19 01:54:34;;;;;;;0.43;0.20;;;18.90;99.90;;;;;;4956755;29;20027;-77
2022/08/19 01:57:07;;;;;;;1.40;0.30;;;18.90;99.90;;;;;;4957967;28;20475;-78
2022/08/19 01:59:36;;;;;;;0.90;0.30;;;19.00;99.90;;;;;;4957885;28;20019;-76
2022/08/19 02:02:10;;;;;;;0.77;0.30;;;18.90;99.90;;;;;;4957843;28;20418;-76
2022/08/19 02:04:38;;;;;;;0.85;0.40;;;18.70;99.90;;;;;;4957584;28;20054;-78
2022/08/19 02:07:07;;;;;;;2.00;0.35;;;18.60;99.90;;;;;;4957663;28;20035;-78
2022/08/19 02:09:35;;;;;;;0.80;0.15;;;18.40;99.90;;;;;;4956576;29;20551;-76
2022/08/19 02:12:04;;;;;;;0.65;0.20;;;18.30;99.90;;;;;;4957650;28;20028;-77
2022/08/19 02:14:33;;;;;;;1.40;0.40;;;18.20;99.90;;;;;;4956481;29;20027;-77
2022/08/19 02:17:01;;;;;;;0.65;0.20;;;18.30;99.90;;;;;;4957772;28;20065;-77
2022/08/19 02:19:28;;;;;;;0.40;0.20;;;18.40;99.90;;;;;;4956169;29;20027;-77
2022/08/19 02:21:55;;;;;;;0.60;0.20;;;18.60;99.90;;;;;;4954921;28;20439;-77
2022/08/19 02:24:22;;;;;;;1.05;0.25;;;18.80;99.90;;;;;;4956295;29;20031;-77
2022/08/19 02:26:50;;;;;;;1.42;0.30;;;19.10;99.90;;;;;;4958218;28;20027;-78
2022/08/19 02:29:18;;;;;;;1.60;0.47;;;19.60;99.90;;;;;;4956291;29;20483;-76
2022/08/19 02:31:45;;;;;;;0.77;0.55;;;19.90;99.90;;;;;;4956033;29;20032;-79
2022/08/19 02:34:13;;;;;;;1.23;0.60;;;19.90;99.90;;;;;;4956248;29;20031;-77
2022/08/19 02:36:40;;;;;;;0.95;0.50;;;20.10;99.90;;;;;;4955936;29;20023;-77
2022/08/19 02:39:08;;;;;;;1.77;0.28;;;20.20;99.90;;;;;;4957766;28;20024;-77
2022/08/19 02:41:38;;;;;;;0.28;0.10;;;20.10;99.90;;;;;;4957335;28;20047;-78
2022/08/19 02:44:06;;;;;;;0.50;0.20;;;20.20;99.90;;;;;;4957516;28;20150;-78
2022/08/19 02:46:34;;;;;;;0.80;0.32;;;20.30;99.90;;;;;;4955865;29;20030;-81
2022/08/19 02:49:05;;;;;;;0.60;0.35;;;20.70;99.90;;;;;;4957460;28;20424;-76
2022/08/19 02:51:36;;;;;;;0.90;0.50;;;20.80;99.20;;;;;;4956019;29;20027;-75
2022/08/19 02:54:04;;;;;;;0.55;0.20;;;21.10;99.50;;;;;;4956939;28;20091;-76
2022/08/19 02:56:34;;;;;;;0.82;0.20;;;21.30;98.20;;;;;;4957273;28;20024;-76
2022/08/19 02:59:02;;;;;;;0.93;0.40;;;21.40;99.40;;;;;;4955870;29;20054;-75
2022/08/19 03:01:32;;;;;;;0.60;0.30;;;21.60;98.70;;;;;;4955926;29;20031;-77
2022/08/19 03:04:02;;;;;;;0.40;0.22;;;21.10;98.10;;;;;;4956488;29;20050;-76
2022/08/19 03:06:31;;;;;;;0.30;0.28;;;20.70;98.20;;;;;;4957675;28;20417;-76
2022/08/19 03:08:59;;;;;;;1.02;0.40;;;20.50;99.00;;;;;;4956996;28;20032;-76
2022/08/19 03:11:30;;;;;;;0.45;0.40;;;20.30;98.80;;;;;;4957208;28;20447;-76
2022/08/19 03:13:58;;;;;;;0.45;0.30;;;20.20;99.90;;;;;;4956772;28;20023;-76
2022/08/19 03:16:29;;;;;;;1.13;0.30;;;20.20;99.10;;;;;;4954887;29;20027;-79
2022/08/19 03:19:00;;;;;;;0.52;0.17;;;20.20;99.40;;;;;;4956775;28;20098;-77
2022/08/19 03:21:30;;;;;;;1.00;0.30;;;20.10;99.90;;;;;;4939816;29;20042;-77
2022/08/19 03:24:01;;;;;;;1.40;0.70;;;20.00;99.90;;;;;;4955406;29;20054;-78
2022/08/19 03:26:28;;;;;;;;;;;20.10;99.60;;;;;;4955715;29;20039;-77
2022/08/19 03:28:56;;;;;;;0.75;0.40;;;20.20;99.90;;;;;;4955506;29;19911;-76
2022/08/19 03:31:25;;;;;;;0.85;0.40;;;20.20;99.70;;;;;;4956358;28;20170;-77
2022/08/19 03:33:52;;;;;;;0.80;0.30;;;20.30;99.40;;;;;;4956271;28;20027;-78
2022/08/19 03:36:25;;;;;;;1.35;0.50;;;20.30;99.20;;;;;;4956673;28;20038;-76
2022/08/19 03:38:56;;;;;;;1.85;0.40;;;20.40;99.70;;;;;;4956507;28;20027;-76
2022/08/19 03:41:26;;;;;;;2.28;0.50;;;20.30;98.90;;;;;;4956134;29;20092;-78
2022/08/19 03:43:54;;;;;;;0.98;0.30;;;20.10;99.40;;;;;;4941731;29;20411;-79
2022/08/19 03:46:26;;;;;;;1.80;0.30;;;19.90;99.70;;;;;;4957526;28;20435;-81
2022/08/19 03:48:57;;;;;;;6.25;0.43;;;19.70;99.90;;;;;;4957344;28;20023;-80
2022/08/19 03:51:36;;;;;;;0.45;0.10;;;19.60;99.90;;;;;;4957692;28;20031;-78
2022/08/19 03:54:08;;;;;;;0.93;0.35;;;19.90;99.90;;;;;;4959347;28;20413;-79
2022/08/19 03:56:37;;;;;;;0.95;0.50;;;20.30;99.80;;;;;;4959030;28;20027;-80
2022/08/19 03:59:06;;;;;;;1.10;0.28;;;20.40;98.90;;;;;;4958934;28;20062;-79
2022/08/19 04:01:36;;;;;;;0.38;0.10;;;20.40;98.80;;;;;;4957210;29;20028;-80
2022/08/19 04:04:04;;;;;;;0.40;0.20;;;20.50;98.30;;;;;;4956327;28;20420;-79
2022/08/19 04:06:34;;;;;;;0.77;0.20;;;20.40;98.60;;;;;;4955205;29;20050;-80
2022/08/19 04:09:04;;;;;;;0.43;0.20;;;20.40;98.40;;;;;;4956034;28;20036;-79
2022/08/19 04:11:39;;;;;;;0.32;0.20;;;20.30;99.60;;;;;;4955392;29;20058;-81
2022/08/19 04:14:07;;;;;;;1.05;0.35;;;20.10;98.80;;;;;;4955612;29;20109;-80
2022/08/19 04:16:35;;;;;;;0.60;0.32;;;19.80;99.20;;;;;;4955588;29;20034;-78
2022/08/19 04:19:04;;;;;;;0.98;0.25;;;19.80;99.90;;;;;;4956200;28;20026;-79
2022/08/19 04:21:33;;;;;;;2.20;0.43;;;19.80;99.40;;;;;;4955132;29;20100;-78
2022/08/19 04:24:01;;;;;;;0.90;0.32;;;20.00;99.60;;;;;;4954404;29;20300;-77
2022/08/19 04:26:33;;;;;;;1.52;0.50;;;19.80;99.40;;;;;;4955881;28;20082;-76
2022/08/19 04:29:07;;;;;;;1.50;0.60;;;19.80;99.80;;;;;;4954538;29;20373;-77
2022/08/19 04:31:35;;;;;;;2.00;0.47;;;19.70;99.60;;;;;;4954036;29;20027;-77
2022/08/19 04:34:06;;;;;;;1.88;0.50;;;19.50;99.70;;;;;;4955292;28;20029;-77
2022/08/19 04:36:36;;;;;;;;;;;19.30;99.90;;;;;;4955760;28;20472;-76
2022/08/19 04:39:16;;;;;;;1.63;0.45;;;19.20;99.90;;;;;;4953928;28;19911;-77
2022/08/19 04:44:32;;;;;;;2.40;0.70;;;18.90;99.90;;;;;;4954750;28;20094;-78
2022/08/19 04:47:00;;;;;;;1.55;0.52;;;19.00;99.90;;;;;;4959283;28;20111;-78
2022/08/19 04:49:28;;;;;;;1.08;0.60;;;19.00;99.90;;;;;;4942232;29;20035;-78
2022/08/19 04:51:56;;;;;;;3.00;0.60;;;19.10;99.90;;;;;;4959330;28;20480;-78
2022/08/19 04:54:25;;;;;;;1.15;0.50;;;19.00;99.90;;;;;;4957794;29;20050;-78
2022/08/19 04:56:53;;;;;;;5.53;0.63;;;18.90;99.90;;;;;;4957677;29;20024;-77
2022/08/19 04:59:24;;;;;;;2.95;0.80;;;18.80;99.90;;;;;;4958865;28;20031;-77
2022/08/19 05:01:51;;;;;;;0.90;0.60;;;18.80;99.90;;;;;;4959126;28;20069;-76
2022/08/19 05:04:21;;;;;;;0.90;0.63;;;18.80;99.90;;;;;;4958582;28;20027;-78
2022/08/19 05:06:51;;;;;;;2.80;0.70;;;18.70;99.90;;;;;;4957359;29;20167;-79
2022/08/19 05:09:20;;;;;;;1.52;0.40;;;18.60;99.90;;;;;;4958729;28;20047;-77
2022/08/19 05:11:49;;;;;;;1.95;0.60;;;18.50;99.90;;;;;;4957501;29;20084;-78
2022/08/19 05:14:16;;;;;;;1.48;0.22;;;18.40;99.90;;;;;;4957591;29;20027;-79
2022/08/19 05:16:44;;;;;;;3.70;0.52;;;18.20;99.90;;;;;;4958782;28;20070;-77
2022/08/19 05:24:42;;;;;;;1.35;0.30;;;15.60;99.90;;;;;;4959230;29;20057;-77
2022/08/19 05:27:09;;;;;;;2.25;0.30;;;15.20;99.90;;;;;;4957303;29;20035;-77
2022/08/19 05:29:37;;;;;;;2.05;0.40;;;15.00;99.90;;;;;;4958541;28;20027;-76
2022/08/19 05:32:10;;;;;;;1.83;0.40;;;14.80;99.90;;;;;;4957288;29;20484;-76
2022/08/19 05:34:38;;;;;;;1.45;0.40;;;14.60;99.90;;;;;;4958412;28;20019;-76
2022/08/19 05:37:07;;;;;;;1.48;0.40;;;14.70;99.90;;;;;;4956971;29;20031;-77
2022/08/19 05:39:37;;;;;;;0.95;0.22;;;14.70;99.90;;;;;;4957879;28;20019;-76
2022/08/19 05:42:09;;;;;;;2.53;0.38;;;14.80;99.90;;;;;;4958906;28;20035;-75
2022/08/19 05:44:43;;;;;;;2.08;0.38;;;14.80;99.90;;;;;;4957635;29;20102;-76
2022/08/19 05:47:12;;;;;;;0.93;0.30;;;15.00;99.90;;;;;;4958288;28;20392;-75
2022/08/19 05:49:43;;;;;;;2.22;0.40;;;15.00;99.90;;;;;;4941197;29;20035;-75
2022/08/19 05:52:13;;;;;;;1.60;0.40;;;15.20;99.90;;;;;;4956614;29;20396;-75
2022/08/19 05:54:42;;;;;;;1.13;0.52;;;15.50;99.90;;;;;;4957974;28;20019;-76
2022/08/19 05:57:10;;;;;;;2.03;0.52;;;15.60;99.90;;;;;;4956251;28;20099;-75
2022/08/19 05:59:41;;;;;;;3.63;0.95;;;15.60;99.90;;;;;;4958003;28;20031;-76
2022/08/19 06:02:09;;;;;;;1.23;0.30;;;15.60;99.90;;;;;;4956650;29;20031;-77
2022/08/19 06:04:37;;;;;;;1.38;0.40;;;15.60;99.90;;;;;;4956649;29;20031;-76
2022/08/19 06:07:04;;;;;;;0.80;0.40;;;15.70;99.90;;;;;;4956361;29;20030;-76
2022/08/19 06:09:32;;;;;;;0.88;0.40;;;15.80;99.90;;;;;;4956658;29;20031;-75
2022/08/19 06:12:01;;;;;;;2.00;0.55;;;15.80;99.90;;;;;;4957302;28;20465;-74
2022/08/19 06:14:34;;;;;;;1.17;0.30;;;15.80;99.90;;;;;;4956006;29;20023;-76
2022/08/19 06:17:02;;;;;;;0.60;0.20;;;15.70;99.90;;;;;;4956115;29;20513;-75
2022/08/19 06:19:31;;;;;;;1.63;0.20;;;15.80;99.90;;;;;;4956274;29;20240;-78
2022/08/19 06:22:03;;;;;;;0.10;0.10;;;15.80;99.90;;;;;;4957492;28;20034;-76
2022/08/19 06:24:31;;;;;;;0.95;0.20;;;15.90;99.90;;;;;;4956404;29;20477;-74
2022/08/19 06:27:00;;;;;;;1.48;0.10;;;16.00;99.90;;;;;;4957184;28;20365;-72
2022/08/19 06:29:29;;;;;;;0.82;0.15;;;16.10;99.90;;;;;;4957613;28;20027;-72
2022/08/19 06:31:59;;;;;;;2.33;0.30;;;16.30;99.90;;;;;;4955793;29;20058;-75
2022/08/19 06:34:28;;;;;;;0.65;0.20;;;16.40;99.90;;;;;;4957089;28;20380;-75
2022/08/19 06:37:00;;;;;;;2.20;0.40;;;16.40;99.90;;;;;;4955648;29;20024;-75
2022/08/19 06:39:38;;;;;;;2.20;0.20;;;16.40;99.90;;;;;;4957015;28;20019;-75
2022/08/19 06:42:09;;;;;;;0.43;0.28;;;16.30;99.90;;;;;;4956873;28;20031;-74
2022/08/19 06:44:39;;;;;;;0.65;0.30;;;16.30;99.90;;;;;;4956082;29;20122;-73
2022/08/19 06:47:09;;;;;;;1.55;0.40;;;16.30;99.90;;;;;;4939852;29;20035;-72
2022/08/19 06:49:37;;;;;;;1.88;0.32;;;16.20;99.90;;;;;;4957225;28;20020;-74
2022/08/19 06:52:05;;;;;;;3.03;0.55;;;16.30;99.90;;;;;;4956837;28;20027;-75
2022/08/19 06:54:33;;;;;;;4.78;1.17;;;16.30;99.90;;;;;;4956578;28;20484;-73
2022/08/19 06:57:05;;;;;;;7.47;1.38;;;16.30;99.90;;;;;;4956591;28;20090;-72
2022/08/19 06:59:33;;;;;;;8.07;1.50;;;16.20;99.90;;;;;;4939776;29;20500;-72
2022/08/19 07:02:07;;;;;;;7.82;1.50;;;16.00;99.90;;;;;;4955334;29;20031;-73
2022/08/19 07:04:36;;;;;;;9.98;2.10;;;15.60;99.90;;;;;;4939881;29;20436;-73
2022/08/19 07:07:11;;;;;;;11.85;1.90;;;15.40;99.90;;;;;;4954729;28;20035;-72
2022/08/19 07:09:42;;;;;;;8.27;1.77;;;15.20;99.90;;;;;;4956532;28;20383;-73
2022/08/19 07:12:13;;;;;;;5.82;1.63;;;15.20;99.90;;;;;;4939348;29;20431;-74
2022/08/19 07:14:41;;;;;;;7.00;1.23;;;15.00;99.90;;;;;;4956422;28;20154;-74
2022/08/19 07:17:19;;;;;;;7.80;1.63;;;14.80;99.90;;;;;;4956313;29;20552;-76
2022/08/19 07:19:47;;;;;;;6.10;1.08;;;14.60;99.90;;;;;;4955115;29;20020;-74
2022/08/19 07:22:14;;;;;;;6.60;1.45;;;14.60;99.90;;;;;;4956093;28;20169;-77
2022/08/19 07:24:42;;;;;;;4.82;1.20;;;14.40;99.90;;;;;;4956337;28;20216;-76
2022/08/19 07:27:10;;;;;;;6.75;1.60;;;14.40;99.90;;;;;;4956469;28;20388;-75
2022/08/19 07:29:38;;;;;;;4.30;1.38;;;14.30;99.90;;;;;;4954942;29;20558;-76
2022/08/19 07:32:06;;;;;;;3.80;1.10;;;14.20;99.90;;;;;;4955538;29;20506;-76
2022/08/19 07:34:36;;;;;;;4.32;1.67;;;14.10;99.90;;;;;;4956117;28;20023;-75
2022/08/19 07:37:07;;;;;;;4.90;1.15;;;13.90;99.90;;;;;;4956466;28;20015;-76
2022/08/19 07:39:36;;;;;;;3.22;0.98;;;13.90;99.90;;;;;;4954611;28;20023;-76
2022/08/19 07:42:08;;;;;;;8.73;4.63;;;13.80;99.90;;;;;;4954844;29;20094;-76
2022/08/19 07:44:36;;;;;;;10.60;7.13;;;13.80;99.90;;;;;;4955916;28;20531;-73
2022/08/19 07:47:05;;;;;;;5.63;2.65;;;13.70;99.90;;;;;;4955700;28;20082;-74
2022/08/19 07:49:32;;;;;;;26.15;23.40;;;13.70;99.90;;;;;;4954383;29;20495;-73
2022/08/19 07:52:08;;;;;;;6.93;3.60;;;13.60;99.90;;;;;;4954656;29;20023;-76
2022/08/19 07:54:39;;;;;;;5.05;1.80;;;13.60;99.90;;;;;;4954638;29;20119;-75
2022/08/19 07:57:11;;;;;;;7.13;3.40;;;13.50;99.90;;;;;;4956161;28;20027;-76
2022/08/19 07:59:46;;;;;;;7.13;4.88;;;13.50;99.90;;;;;;4956008;28;20476;-75
2022/08/19 08:02:14;;;;;;;3.13;1.75;;;13.50;99.90;;;;;;4954381;29;20078;-76
2022/08/19 08:10:11;;;;;;;4.57;1.65;;;13.30;99.90;;;;;;4955746;29;20050;-76
2022/08/19 08:12:41;;;;;;;4.90;2.38;;;13.20;99.90;;;;;;4955511;28;20110;-76
2022/08/19 08:15:12;;;;;;;3.97;1.60;;;13.20;99.90;;;;;;4955465;28;20062;-76
2022/08/19 08:17:40;;;;;;;6.93;3.50;;;13.10;99.90;;;;;;4955592;28;20047;-76
2022/08/19 08:20:08;;;;;;;4.97;2.30;;;13.10;99.90;;;;;;4954048;28;20027;-74
2022/08/19 08:25:23;;;;;;;4.80;2.70;;;12.90;99.90;;;;;;4955330;29;20082;-74
2022/08/19 08:27:52;;;;;;;5.55;2.90;;;12.80;99.90;;;;;;4955573;28;20027;-76
2022/08/19 08:30:25;;;;;;;6.57;1.50;;;12.80;99.90;;;;;;4955497;28;20023;-75
2022/08/19 08:32:52;;;;;;;6.20;2.15;;;12.80;99.90;;;;;;4955090;28;20030;-76
2022/08/19 08:35:23;;;;;;;15.55;5.22;;;12.70;99.90;;;;;;4954074;29;20134;-74
2022/08/19 08:37:53;;;;;;;14.43;3.42;;;12.70;99.90;;;;;;4953826;29;20118;-76
2022/08/19 08:40:56;;;;;;;10.52;4.25;;;12.70;99.90;;;;;;4954800;28;20082;-75
2022/08/19 08:43:42;;;;;;;4.80;2.40;;;12.60;99.90;;;;;;4941858;29;20032;-75
2022/08/19 08:46:48;;;;;;;6.32;2.47;;;12.60;99.90;;;;;;4953790;29;20502;-74
2022/08/19 08:49:27;;;;;;;11.23;5.80;;;12.50;99.90;;;;;;4953984;29;20027;-76
2022/08/19 08:52:25;;;;;;;9.32;3.90;;;12.40;99.90;;;;;;4955335;28;20480;-75
2022/08/19 08:54:55;;;;;;;13.27;5.72;;;12.40;99.90;;;;;;4955174;28;20483;-75
2022/08/19 08:57:31;;;;;;;9.57;5.75;;;12.30;99.90;;;;;;4953873;29;20491;-74
2022/08/19 09:00:00;;;;;;;6.15;3.25;;;12.30;99.90;;;;;;4955163;28;20484;-76
2022/08/19 09:02:28;;;;;;;6.63;3.15;;;12.20;99.90;;;;;;4955046;28;20031;-75
2022/08/19 09:04:56;;;;;;;7.28;3.47;;;12.30;99.90;;;;;;4955039;28;20106;-74
2022/08/19 09:07:41;;;;;;;9.40;5.10;;;12.30;99.90;;;;;;4953637;29;20031;-76
2022/08/19 09:10:43;;;;;;;10.50;4.60;;;12.30;99.90;;;;;;4953955;29;20032;-76
2022/08/19 09:13:16;;;;;;;5.55;2.40;;;12.30;99.90;;;;;;4938784;29;20036;-76
2022/08/19 09:15:53;;;;;;;6.28;2.03;;;12.20;99.90;;;;;;4953936;29;20023;-76
2022/08/19 09:18:20;;;;;;;6.13;2.72;;;12.20;99.90;;;;;;4953765;29;20110;-76
2022/08/19 09:20:48;;;;;;;5.88;2.33;;;12.10;99.90;;;;;;4955924;28;20083;-77
2022/08/19 09:23:16;;;;;;;6.03;2.10;;;12.10;99.90;;;;;;4955500;29;20118;-77
2022/08/19 09:25:43;;;;;;;4.50;2.38;;;12.10;99.90;;;;;;4957016;28;20042;-77
2022/08/19 09:28:12;;;;;;;4.82;2.15;;;12.10;99.90;;;;;;4954221;29;20369;-76
2022/08/19 09:30:41;;;;;;;3.80;1.77;;;12.00;99.90;;;;;;4953718;28;20123;-77
2022/08/19 09:33:09;;;;;;;3.67;1.40;;;12.00;99.90;;;;;;4958320;28;20154;-76
2022/08/19 09:35:36;;;;;;;4.68;1.55;;;12.00;99.90;;;;;;4958210;28;20081;-75
2022/08/19 09:38:03;;;;;;;3.55;1.90;;;12.00;99.90;;;;;;4956992;29;20024;-76
2022/08/19 09:40:31;;;;;;;3.40;1.80;;;12.00;99.90;;;;;;4956858;28;20492;-76
2022/08/19 09:43:02;;;;;;;3.78;1.88;;;11.90;99.90;;;;;;4957069;29;20059;-76
2022/08/19 09:45:30;;;;;;;3.97;2.08;;;11.90;99.90;;;;;;4957921;29;20034;-75
2022/08/19 09:47:57;;;;;;;5.53;2.95;;;11.90;99.90;;;;;;4959179;28;20472;-76
2022/08/19 09:50:25;;;;;;;5.22;1.70;;;11.80;99.90;;;;;;4960915;28;20056;-75
2022/08/19 09:52:53;;;;;;;4.20;1.13;;;11.80;99.90;;;;;;4959583;29;20186;-77
2022/08/19 09:55:21;;;;;;;4.05;1.77;;;11.80;99.90;;;;;;4958501;29;20388;-78
2022/08/19 09:57:48;;;;;;;2.97;1.30;;;11.70;99.90;;;;;;4957332;29;20030;-77
2022/08/19 10:00:15;;;;;;;3.38;1.55;;;11.70;99.90;;;;;;4956998;29;20031;-76
2022/08/19 10:02:43;;;;;;;5.40;2.53;;;11.70;99.90;;;;;;4958783;28;20031;-77
2022/08/19 10:08:05;;;;;;;1.85;1.20;;;11.60;99.90;;;;;;4959290;29;20388;-76
2022/08/19 10:10:36;;;;;;;4.78;1.60;;;11.60;99.90;;;;;;4957209;29;20090;-76
2022/08/19 10:13:03;;;;;;;;;;;11.60;99.90;;;;;;4958845;28;20027;-76
2022/08/19 10:15:31;;;;;;;1.77;1.20;;;11.60;99.90;;;;;;4958403;29;19913;-76
2022/08/19 10:17:59;;;;;;;5.82;0.93;;;11.50;99.90;;;;;;4958247;28;20027;-76
2022/08/19 10:20:28;;;;;;;2.25;1.40;;;11.50;99.90;;;;;;4957645;28;20109;-76
2022/08/19 10:22:55;;;;;;;2.72;1.50;;;11.50;99.90;;;;;;4940399;29;20038;-76
2022/08/19 10:25:23;;;;;;;4.45;1.88;;;11.50;99.90;;;;;;4957653;28;20030;-76
2022/08/19 10:27:50;;;;;;;2.58;1.02;;;11.40;99.90;;;;;;4957631;28;20032;-76
2022/08/19 10:30:18;;;;;;;4.18;1.25;;;11.40;99.90;;;;;;4956147;29;20058;-76
2022/08/19 10:32:46;;;;;;;2.03;1.17;;;11.40;99.90;;;;;;4956040;29;20091;-76
2022/08/19 10:35:14;;;;;;;2.55;1.60;;;11.40;99.90;;;;;;4955904;29;20078;-76
2022/08/19 10:37:42;;;;;;;3.75;1.83;;;11.40;99.90;;;;;;4956013;29;20051;-76
2022/08/19 10:40:11;;;;;;;2.75;1.48;;;11.30;99.90;;;;;;4955600;28;20054;-77
2022/08/19 10:42:38;;;;;;;3.15;1.63;;;11.20;99.90;;;;;;4954815;28;20023;-76
2022/08/19 10:45:07;;;;;;;5.13;2.50;;;11.20;99.90;;;;;;4957395;28;20031;-77
2022/08/19 10:47:34;;;;;;;5.07;2.08;;;11.20;99.90;;;;;;4956996;29;20030;-76
2022/08/19 10:52:58;;;;;;;2.28;1.23;;;11.20;99.90;;;;;;4922399;28;20044;-76
2022/08/19 10:58:17;;;;;;;3.00;1.83;;;11.20;99.90;;;;;;4957408;29;20120;-77
2022/08/19 11:00:55;;;;;;;2.60;1.30;;;11.30;99.90;;;;;;4956532;29;20024;-76
2022/08/19 11:03:24;;;;;;;4.07;1.45;;;11.30;99.90;;;;;;4956813;28;20377;-76
2022/08/19 11:06:07;;;;;;;3.28;1.08;;;11.30;99.90;;;;;;4955787;29;20070;-76
2022/08/19 11:08:37;;;;;;;3.35;1.48;;;11.20;99.90;;;;;;4939583;29;20067;-76
2022/08/19 11:11:07;;;;;;;3.23;1.77;;;11.30;99.90;;;;;;4955240;29;20035;-75
2022/08/19 11:13:38;;;;;;;1.85;1.10;;;11.30;99.90;;;;;;4957168;28;20070;-75
2022/08/19 11:16:15;;;;;;;2.47;1.02;;;11.20;99.90;;;;;;4955701;29;20043;-75
2022/08/19 11:18:51;;;;;;;1.70;1.00;;;11.30;99.90;;;;;;4939438;29;20127;-74
2022/08/19 11:21:23;;;;;;;2.85;1.33;;;11.20;99.90;;;;;;4956797;28;20034;-75
2022/08/19 11:23:53;;;;;;;2.90;1.10;;;11.20;99.90;;;;;;4956760;28;20027;-76
2022/08/19 11:26:21;;;;;;;2.33;1.02;;;11.20;99.90;;;;;;4956450;28;20032;-76
2022/08/19 11:28:54;;;;;;;2.35;1.20;;;11.10;99.90;;;;;;4956435;28;20107;-76
2022/08/19 11:31:24;;;;;;;3.10;1.33;;;11.10;99.90;;;;;;4956663;28;20030;-76
2022/08/19 11:33:53;;;;;;;2.17;1.00;;;11.10;99.90;;;;;;4956478;28;20476;-75
2022/08/19 11:36:22;;;;;;;2.40;0.88;;;11.10;99.90;;;;;;4954898;29;20027;-78
2022/08/19 11:38:50;;;;;;;2.33;1.00;;;11.10;99.90;;;;;;4956313;28;20095;-77
2022/08/19 11:41:20;;;;;;;2.47;1.02;;;11.10;99.90;;;;;;4954438;28;20055;-77
2022/08/19 11:43:47;;;;;;;2.72;0.90;;;11.00;99.90;;;;;;4954814;29;20118;-77
2022/08/19 11:46:20;;;;;;;1.55;0.90;;;11.00;99.90;;;;;;4955923;28;20146;-76
2022/08/19 11:48:49;;;;;;;1.60;1.02;;;11.00;99.90;;;;;;4954713;29;20042;-77
2022/08/19 11:51:21;;;;;;;2.15;1.20;;;10.90;99.90;;;;;;4955686;28;20023;-76
2022/08/19 11:53:50;;;;;;;2.63;1.10;;;10.90;99.90;;;;;;4956009;28;20074;-77
2022/08/19 11:56:18;;;;;;;2.55;1.00;;;10.90;99.90;;;;;;4954687;29;20392;-77
2022/08/19 11:58:46;;;;;;;2.38;1.52;;;10.90;99.90;;;;;;4955695;28;20023;-77
2022/08/19 12:01:18;;;;;;;1.52;1.02;;;10.90;99.90;;;;;;4955847;28;20027;-77
2022/08/19 12:03:47;;;;;;;2.80;1.20;;;10.80;99.90;;;;;;4954565;29;20067;-77
2022/08/19 12:06:17;;;;;;;2.65;0.95;;;10.80;99.90;;;;;;4955691;28;20061;-77
2022/08/19 12:08:45;;;;;;;2.22;1.00;;;10.80;99.90;;;;;;4955812;28;20110;-78
2022/08/19 12:11:14;;;;;;;2.47;1.08;;;10.80;99.90;;;;;;4955700;28;20034;-76
2022/08/19 12:13:46;;;;;;;3.17;1.17;;;10.80;99.90;;;;;;4955358;28;20047;-76
2022/08/19 12:16:17;;;;;;;3.90;1.30;;;10.80;99.90;;;;;;4955274;28;20369;-77
2022/08/19 12:18:46;;;;;;;2.83;1.20;;;10.70;99.90;;;;;;4955816;28;20015;-76
2022/08/19 12:21:15;;;;;;;2.13;1.20;;;10.80;99.90;;;;;;4938411;29;20059;-77
2022/08/19 12:23:45;;;;;;;4.03;1.30;;;10.70;99.90;;;;;;4954106;29;20512;-77
2022/08/19 12:26:13;;;;;;;1.77;0.90;;;10.80;99.90;;;;;;4953938;29;20097;-76
2022/08/19 12:28:41;;;;;;;1.63;1.02;;;10.90;99.90;;;;;;4955573;28;20388;-75
2022/08/19 12:31:11;;;;;;;2.85;1.13;;;10.90;99.90;;;;;;4955435;28;20034;-77
2022/08/19 12:33:40;;;;;;;2.75;1.00;;;10.90;99.90;;;;;;4954116;29;20030;-76
2022/08/19 12:36:11;;;;;;;2.22;1.00;;;11.00;99.90;;;;;;4954185;29;20034;-75
2022/08/19 12:38:40;;;;;;;2.95;1.33;;;10.90;99.90;;;;;;4954294;29;20056;-76
2022/08/19 12:41:12;;;;;;;3.55;1.17;;;11.00;99.90;;;;;;4955310;28;20471;-75
2022/08/19 12:43:40;;;;;;;3.35;1.30;;;11.00;99.90;;;;;;4955351;28;20034;-75
2022/08/19 12:46:09;;;;;;;3.72;0.90;;;11.10;99.90;;;;;;4955942;28;20114;-76
2022/08/19 12:48:37;;;;;;;2.97;0.63;;;11.10;99.90;;;;;;4956305;28;20098;-76
2022/08/19 12:51:10;;;;;;;2.45;0.70;;;11.20;99.90;;;;;;4955093;29;20126;-76
2022/08/19 12:53:38;;;;;;;2.42;1.15;;;11.20;99.90;;;;;;4957576;28;20020;-75
2022/08/19 12:56:06;;;;;;;2.25;0.90;;;11.30;99.90;;;;;;4955089;29;20085;-76
2022/08/19 12:58:34;;;;;;;2.17;0.68;;;11.30;99.90;;;;;;4956905;29;20106;-77
2022/08/19 13:01:10;;;;;;;2.88;0.88;;;11.30;99.90;;;;;;4955052;29;20129;-77
2022/08/19 13:03:38;;;;;;;2.60;0.90;;;11.30;99.90;;;;;;4956956;28;20027;-78
2022/08/19 13:06:06;;;;;;;1.73;0.77;;;11.40;99.90;;;;;;4956302;28;20117;-77
2022/08/19 13:08:35;;;;;;;2.42;0.77;;;11.40;99.90;;;;;;4957824;29;20038;-77
2022/08/19 13:11:17;;;;;;;3.67;1.00;;;11.30;99.90;;;;;;4959014;28;20031;-75
2022/08/19 13:13:47;;;;;;;3.20;1.30;;;11.20;99.90;;;;;;4958931;28;20016;-76
2022/08/19 13:16:14;;;;;;;4.25;0.93;;;11.10;99.90;;;;;;4958831;28;20019;-75
2022/08/19 13:18:44;;;;;;;2.50;0.80;;;11.10;99.90;;;;;;4958988;28;20023;-76
2022/08/19 13:21:12;;;;;;;3.47;1.10;;;11.20;99.90;;;;;;4958707;28;20034;-76
2022/08/19 13:23:41;;;;;;;4.22;1.35;;;11.20;99.90;;;;;;4957371;29;20038;-77
2022/08/19 13:26:11;;;;;;;3.40;0.75;;;11.20;99.90;;;;;;4958883;28;20038;-76
2022/08/19 13:34:13;;;;;;;2.92;1.00;;;11.20;99.90;;;;;;4958574;29;20034;-74